Time;durP1;ratioP1;P1;durP2;ratioP2;P2;SDS_P1;SDS_P2;PMS_P1;PMS_P2;Temp;Humidity;BMP_temperature;BMP_pressure;BME280_temperature;BME280_humidity;BME280_pressure;Samples;Min_cycle;Max_cycle;Signal;HPM_P1;HPM_P2
2023/04/10 00:01:01;;;;;;;18.45;16.27;;;10.40;93.80;;;;;;5035617;28;20033;-73
2023/04/10 00:03:27;;;;;;;22.00;16.85;;;10.40;93.80;;;;;;5051953;28;20053;-74
2023/04/10 00:05:53;;;;;;;19.73;17.42;;;10.40;93.90;;;;;;5052438;28;20390;-73
2023/04/10 00:08:23;;;;;;;18.65;15.88;;;10.40;94.00;;;;;;5052671;28;20110;-74
2023/04/10 00:10:49;;;;;;;17.52;15.45;;;10.40;94.10;;;;;;5051859;28;20024;-74
2023/04/10 00:13:15;;;;;;;18.67;15.05;;;10.30;94.10;;;;;;5050820;28;20025;-74
2023/04/10 00:15:41;;;;;;;25.15;15.07;;;10.30;94.20;;;;;;5052510;28;20108;-74
2023/04/10 00:18:06;;;;;;;15.68;13.95;;;10.30;94.20;;;;;;5051652;28;20032;-74
2023/04/10 00:20:32;;;;;;;17.88;15.80;;;10.30;94.30;;;;;;5045141;28;20026;-74
2023/04/10 00:22:57;;;;;;;16.35;13.98;;;10.20;94.40;;;;;;5045149;28;20024;-74
2023/04/10 00:25:23;;;;;;;15.13;13.50;;;10.30;94.50;;;;;;5051620;28;20024;-74
2023/04/10 00:27:49;;;;;;;16.42;14.60;;;10.20;94.50;;;;;;5044454;28;20017;-74
2023/04/10 00:30:14;;;;;;;17.77;15.13;;;10.20;94.70;;;;;;5050199;28;20017;-74
2023/04/10 00:32:40;;;;;;;13.23;11.50;;;10.20;94.70;;;;;;5040703;28;20022;-73
2023/04/10 00:35:07;;;;;;;16.23;13.88;;;10.20;94.80;;;;;;5032220;28;20026;-74
2023/04/10 00:37:32;;;;;;;13.85;11.80;;;10.20;94.80;;;;;;5032667;28;20021;-73
2023/04/10 00:39:58;;;;;;;18.17;15.02;;;10.10;94.80;;;;;;5032806;28;20018;-74
2023/04/10 00:42:24;;;;;;;16.75;13.50;;;10.10;94.90;;;;;;5032798;28;20037;-73
2023/04/10 00:44:50;;;;;;;15.82;12.77;;;10.10;94.90;;;;;;5033467;28;20484;-74
2023/04/10 00:47:15;;;;;;;14.23;12.68;;;10.20;95.00;;;;;;5031690;28;20546;-74
2023/04/10 00:49:42;;;;;;;17.08;14.00;;;10.10;95.00;;;;;;5032680;28;20075;-74
2023/04/10 00:52:08;;;;;;;15.10;11.90;;;10.10;95.20;;;;;;5032515;28;20029;-74
2023/04/10 00:54:35;;;;;;;15.43;13.25;;;10.10;95.30;;;;;;5031512;28;20021;-74
2023/04/10 00:57:02;;;;;;;15.38;13.02;;;10.10;95.40;;;;;;5032485;28;20017;-74
2023/04/10 00:59:27;;;;;;;15.05;13.18;;;10.00;95.50;;;;;;5032753;28;20017;-73
2023/04/10 01:01:53;;;;;;;14.32;12.77;;;10.00;95.70;;;;;;5031917;28;20030;-76
2023/04/10 01:04:19;;;;;;;14.95;13.15;;;10.00;95.80;;;;;;5032745;28;20522;-74
2023/04/10 01:07:26;;;;;;;14.88;12.85;;;9.90;95.80;;;;;;5032686;28;20052;-76
2023/04/10 01:10:00;;;;;;;12.82;11.02;;;10.00;95.90;;;;;;5024188;28;20022;-74
2023/04/10 01:12:35;;;;;;;13.65;11.18;;;9.90;95.90;;;;;;5031914;28;20029;-74
2023/04/10 01:15:03;;;;;;;14.02;12.13;;;9.90;95.90;;;;;;5032578;28;20091;-74
2023/04/10 01:17:33;;;;;;;16.23;11.82;;;9.80;96.00;;;;;;5019075;28;20023;-74
2023/04/10 01:20:15;;;;;;;13.07;11.50;;;9.80;96.10;;;;;;5032547;28;20097;-73
2023/04/10 01:22:43;;;;;;;12.93;11.55;;;9.80;96.30;;;;;;5032618;28;20478;-73
2023/04/10 01:25:28;;;;;;;13.68;11.07;;;9.70;96.30;;;;;;5032757;28;20021;-74
2023/04/10 01:28:28;;;;;;;12.17;10.50;;;9.70;96.40;;;;;;5030955;28;20049;-74
2023/04/10 01:30:58;;;;;;;11.38;9.90;;;9.70;96.60;;;;;;5037672;28;20036;-73
2023/04/10 01:33:29;;;;;;;10.88;9.77;;;9.70;96.60;;;;;;5033392;28;20087;-74
2023/04/10 01:35:59;;;;;;;13.85;10.57;;;9.60;96.70;;;;;;5031551;28;20388;-74
2023/04/10 01:38:28;;;;;;;14.07;10.98;;;9.70;96.80;;;;;;5030715;28;20701;-73
2023/04/10 01:40:54;;;;;;;14.38;9.88;;;9.70;96.90;;;;;;5031310;28;20474;-73
2023/04/10 01:43:22;;;;;;;13.63;11.38;;;9.60;97.00;;;;;;5029792;28;20018;-74
2023/04/10 01:45:50;;;;;;;12.10;10.60;;;9.60;97.20;;;;;;5030975;28;20052;-74
2023/04/10 01:48:17;;;;;;;11.23;9.18;;;9.70;97.20;;;;;;5030700;28;20026;-73
2023/04/10 01:50:45;;;;;;;12.65;10.10;;;9.70;97.20;;;;;;5030717;28;20033;-73
2023/04/10 01:53:11;;;;;;;13.38;10.60;;;9.70;97.30;;;;;;5030894;28;20378;-73
2023/04/10 01:55:37;;;;;;;12.27;9.88;;;9.70;97.30;;;;;;5031598;28;20033;-74
2023/04/10 01:58:06;;;;;;;11.88;10.55;;;9.70;97.30;;;;;;5018909;28;20036;-74
2023/04/10 02:00:42;;;;;;;13.20;10.23;;;9.70;97.30;;;;;;5030873;28;20025;-74
2023/04/10 02:03:08;;;;;;;11.82;10.18;;;9.70;97.30;;;;;;5030295;28;20041;-74
2023/04/10 02:06:01;;;;;;;12.48;11.07;;;9.70;97.20;;;;;;5031619;28;20090;-73
2023/04/10 02:08:38;;;;;;;12.27;10.68;;;9.70;97.30;;;;;;5030821;28;20034;-74
2023/04/10 02:11:22;;;;;;;13.98;10.63;;;9.70;97.40;;;;;;5019516;28;20038;-73
2023/04/10 02:13:49;;;;;;;10.80;9.70;;;9.80;97.40;;;;;;5031612;28;20032;-74
2023/04/10 02:16:18;;;;;;;13.07;10.75;;;9.80;97.30;;;;;;5030680;28;20037;-73
2023/04/10 02:18:45;;;;;;;12.02;10.25;;;9.80;97.40;;;;;;5031089;28;20052;-74
2023/04/10 02:21:11;;;;;;;12.23;9.85;;;9.70;97.40;;;;;;5031272;28;20620;-73
2023/04/10 02:23:37;;;;;;;12.02;10.80;;;9.70;97.40;;;;;;5031453;28;20021;-73
2023/04/10 02:26:09;;;;;;;11.83;10.03;;;9.70;97.40;;;;;;5031304;28;20474;-73
2023/04/10 02:28:38;;;;;;;11.13;9.60;;;9.70;97.40;;;;;;5029719;28;20026;-73
2023/04/10 02:31:04;;;;;;;13.25;10.05;;;9.70;97.40;;;;;;5042099;28;20025;-73
2023/04/10 02:33:30;;;;;;;12.02;10.23;;;9.70;97.40;;;;;;5049410;28;20462;-73
2023/04/10 02:35:56;;;;;;;11.40;9.23;;;9.70;97.50;;;;;;5049853;28;20466;-73
2023/04/10 02:38:21;;;;;;;10.35;9.07;;;9.70;97.50;;;;;;5047912;28;20029;-73
2023/04/10 02:40:49;;;;;;;10.93;9.45;;;9.60;97.50;;;;;;5049232;28;20021;-73
2023/04/10 02:43:14;;;;;;;10.82;9.73;;;9.60;97.60;;;;;;5047595;28;20009;-73
2023/04/10 02:45:40;;;;;;;12.10;9.98;;;9.60;97.60;;;;;;5049005;28;20021;-74
2023/04/10 02:48:06;;;;;;;11.68;9.30;;;9.60;97.60;;;;;;5048538;28;20398;-73
2023/04/10 02:50:31;;;;;;;11.83;10.57;;;9.50;97.70;;;;;;5038546;28;20121;-73
2023/04/10 02:52:57;;;;;;;14.18;11.45;;;9.50;97.70;;;;;;5047436;28;20563;-73
2023/04/10 02:55:22;;;;;;;12.90;11.00;;;9.50;97.80;;;;;;5049210;28;20026;-73
2023/04/10 02:57:48;;;;;;;12.15;10.52;;;9.50;97.90;;;;;;5047668;28;20078;-73
2023/04/10 03:00:14;;;;;;;14.45;11.13;;;9.50;97.90;;;;;;5048918;28;20078;-73
2023/04/10 03:02:39;;;;;;;13.65;10.75;;;9.40;98.00;;;;;;5048511;28;20053;-73
2023/04/10 03:05:07;;;;;;;15.02;11.90;;;9.40;98.10;;;;;;5041829;28;20540;-74
2023/04/10 03:07:33;;;;;;;12.75;11.43;;;9.30;98.20;;;;;;5037302;28;20032;-74
2023/04/10 03:09:58;;;;;;;15.23;11.23;;;9.30;98.40;;;;;;5035771;28;20386;-73
2023/04/10 03:12:24;;;;;;;14.03;11.73;;;9.30;98.50;;;;;;5035643;28;20040;-73
2023/04/10 03:14:50;;;;;;;15.77;12.02;;;9.20;98.50;;;;;;5049144;28;20021;-73
2023/04/10 03:17:15;;;;;;;16.58;12.25;;;9.20;98.60;;;;;;5049335;28;20425;-74
2023/04/10 03:19:41;;;;;;;16.93;13.00;;;9.20;98.70;;;;;;5047718;28;20478;-73
2023/04/10 03:22:06;;;;;;;16.73;12.40;;;9.10;98.80;;;;;;5049167;28;20473;-73
2023/04/10 03:24:32;;;;;;;14.98;12.30;;;9.10;98.90;;;;;;5038812;28;20071;-73
2023/04/10 03:26:57;;;;;;;13.73;11.20;;;9.10;98.90;;;;;;5047674;28;20111;-73
2023/04/10 03:29:23;;;;;;;13.98;11.90;;;9.10;99.00;;;;;;5048758;28;20040;-73
2023/04/10 03:31:48;;;;;;;13.43;11.33;;;9.00;99.00;;;;;;5044722;28;20379;-73
2023/04/10 03:34:14;;;;;;;16.00;12.37;;;9.00;99.10;;;;;;5037823;28;20478;-74
2023/04/10 03:36:40;;;;;;;13.67;11.33;;;9.00;99.20;;;;;;5050475;28;20025;-74
2023/04/10 03:39:05;;;;;;;13.17;11.30;;;9.00;99.20;;;;;;5051921;28;20029;-73
2023/04/10 03:41:31;;;;;;;17.00;11.97;;;9.00;99.30;;;;;;5052365;28;20429;-74
2023/04/10 03:43:56;;;;;;;14.83;11.30;;;9.00;99.40;;;;;;5042331;28;20029;-73
2023/04/10 03:46:22;;;;;;;13.73;11.33;;;9.00;99.40;;;;;;5033209;28;20017;-73
2023/04/10 03:48:49;;;;;;;14.83;12.07;;;8.90;99.50;;;;;;5043782;28;20021;-74
2023/04/10 03:51:15;;;;;;;13.27;11.15;;;8.90;99.50;;;;;;5034741;28;20280;-73
2023/04/10 03:53:41;;;;;;;14.67;11.70;;;8.90;99.50;;;;;;5044082;28;20410;-73
2023/04/10 03:56:07;;;;;;;14.48;11.45;;;8.90;99.50;;;;;;5052054;28;20096;-74
2023/04/10 03:58:32;;;;;;;14.10;11.73;;;8.90;99.60;;;;;;5043240;28;20122;-73
2023/04/10 04:00:58;;;;;;;12.73;11.40;;;8.90;99.60;;;;;;5049700;28;20053;-73
2023/04/10 04:03:23;;;;;;;14.70;11.80;;;8.90;99.60;;;;;;5052316;28;20043;-73
2023/04/10 04:05:50;;;;;;;14.27;11.23;;;8.90;99.60;;;;;;5052034;28;20013;-74
2023/04/10 04:08:16;;;;;;;13.30;11.00;;;8.90;99.70;;;;;;5052822;28;20079;-73
2023/04/10 04:10:42;;;;;;;13.23;11.83;;;8.80;99.70;;;;;;5039001;28;20028;-73
2023/04/10 04:13:07;;;;;;;13.73;11.97;;;8.80;99.70;;;;;;5052456;28;20025;-74
2023/04/10 04:15:33;;;;;;;15.33;12.13;;;8.80;99.70;;;;;;5047993;28;20029;-73
2023/04/10 04:17:59;;;;;;;14.97;12.23;;;8.80;99.80;;;;;;5045998;28;20026;-74
2023/04/10 04:20:25;;;;;;;14.47;12.00;;;8.80;99.90;;;;;;5032611;28;20122;-74
2023/04/10 04:22:50;;;;;;;15.17;12.07;;;8.80;99.90;;;;;;5032841;28;20461;-74
2023/04/10 04:25:18;;;;;;;14.77;11.83;;;8.80;99.90;;;;;;5032235;28;20029;-74
2023/04/10 04:27:44;;;;;;;13.23;11.73;;;8.70;99.90;;;;;;5039486;28;20020;-75
2023/04/10 04:30:10;;;;;;;14.30;11.63;;;8.70;99.90;;;;;;5043194;28;20406;-73
2023/04/10 04:32:36;;;;;;;16.00;12.85;;;8.70;99.90;;;;;;5052444;28;20068;-73
2023/04/10 04:35:01;;;;;;;14.10;12.57;;;8.70;99.90;;;;;;5044981;28;20045;-73
2023/04/10 04:37:27;;;;;;;15.17;12.20;;;8.70;99.90;;;;;;5052074;28;20048;-74
2023/04/10 04:39:52;;;;;;;14.77;12.53;;;8.70;99.90;;;;;;5051403;28;20025;-73
2023/04/10 04:42:18;;;;;;;15.07;12.97;;;8.70;99.90;;;;;;5049796;28;20032;-73
2023/04/10 04:44:43;;;;;;;17.33;14.00;;;8.60;99.90;;;;;;5051727;28;20033;-74
2023/04/10 04:47:09;;;;;;;16.60;14.73;;;8.60;99.90;;;;;;5050378;28;20287;-73
2023/04/10 04:49:34;;;;;;;14.13;11.50;;;8.60;99.90;;;;;;5045015;28;20363;-73
2023/04/10 04:52:00;;;;;;;17.53;13.40;;;8.60;99.90;;;;;;5048938;28;20037;-73
2023/04/10 04:54:25;;;;;;;16.50;13.53;;;8.60;99.90;;;;;;5051088;28;20040;-73
2023/04/10 04:56:51;;;;;;;16.40;13.50;;;8.60;99.90;;;;;;5051287;28;20082;-74
2023/04/10 04:59:16;;;;;;;15.30;12.83;;;8.60;99.90;;;;;;5051544;28;20033;-74
2023/04/10 05:01:42;;;;;;;16.63;13.10;;;8.60;99.90;;;;;;5050817;28;20029;-73
2023/04/10 05:04:07;;;;;;;16.37;13.37;;;8.60;99.90;;;;;;5051184;28;20486;-73
2023/04/10 05:06:33;;;;;;;14.07;12.10;;;8.60;99.90;;;;;;5050817;28;20017;-73
2023/04/10 05:08:58;;;;;;;15.60;12.27;;;8.60;99.90;;;;;;5040446;28;20029;-73
2023/04/10 05:11:24;;;;;;;15.10;12.30;;;8.60;99.90;;;;;;5048365;28;20092;-73
2023/04/10 05:13:50;;;;;;;14.20;11.07;;;8.70;99.90;;;;;;5040392;28;20022;-73
2023/04/10 05:16:15;;;;;;;13.50;11.50;;;8.70;99.90;;;;;;5029141;28;20037;-73
2023/04/10 05:18:41;;;;;;;13.90;12.37;;;8.70;99.90;;;;;;5035956;28;20101;-74
2023/04/10 05:21:06;;;;;;;13.70;11.47;;;8.70;99.90;;;;;;5030444;28;20025;-73
2023/04/10 05:23:32;;;;;;;14.57;11.87;;;8.70;99.90;;;;;;5031031;28;20090;-74
2023/04/10 05:25:57;;;;;;;14.13;12.37;;;8.70;99.90;;;;;;5032242;28;20024;-74
2023/04/10 05:28:23;;;;;;;14.13;11.30;;;8.70;99.90;;;;;;5029572;28;20070;-74
2023/04/10 05:30:49;;;;;;;12.57;10.97;;;8.80;99.90;;;;;;5040844;28;20118;-73
2023/04/10 05:33:14;;;;;;;14.43;11.93;;;8.80;99.90;;;;;;5034986;28;20486;-73
2023/04/10 05:35:40;;;;;;;13.50;10.97;;;8.90;99.90;;;;;;5031633;28;20486;-74
2023/04/10 05:38:05;;;;;;;15.97;12.17;;;8.90;99.90;;;;;;5043952;28;20045;-73
2023/04/10 05:40:31;;;;;;;12.80;10.77;;;8.90;99.90;;;;;;5038679;28;20040;-73
2023/04/10 05:42:56;;;;;;;14.13;11.37;;;9.00;99.90;;;;;;5037315;28;20100;-73
2023/04/10 05:45:22;;;;;;;13.68;11.68;;;9.00;99.90;;;;;;5050834;28;20021;-74
2023/04/10 05:47:48;;;;;;;12.87;11.40;;;9.00;99.90;;;;;;5050777;28;20028;-74
2023/04/10 05:50:13;;;;;;;15.37;11.63;;;9.10;99.90;;;;;;5046199;28;20075;-73
2023/04/10 05:52:39;;;;;;;13.30;11.03;;;9.10;99.90;;;;;;5049261;28;20025;-73
2023/04/10 05:55:05;;;;;;;14.20;12.23;;;9.20;99.90;;;;;;5049957;28;20021;-73
2023/04/10 05:57:31;;;;;;;14.83;12.30;;;9.20;99.90;;;;;;5049210;28;20024;-73
2023/04/10 05:59:56;;;;;;;14.70;11.60;;;9.30;99.90;;;;;;5044680;28;20478;-73
2023/04/10 06:02:22;;;;;;;13.43;11.85;;;9.30;99.90;;;;;;5039829;28;20441;-73
2023/04/10 06:04:47;;;;;;;15.27;12.73;;;9.40;99.90;;;;;;5045725;28;20381;-73
2023/04/10 06:07:13;;;;;;;13.07;11.40;;;9.50;99.90;;;;;;5038213;28;20023;-73
2023/04/10 06:09:38;;;;;;;14.57;11.93;;;9.60;99.90;;;;;;5029375;28;20108;-74
2023/04/10 06:12:04;;;;;;;15.43;13.33;;;9.60;99.80;;;;;;5039610;28;20033;-73
2023/04/10 06:14:30;;;;;;;14.80;11.85;;;9.70;99.70;;;;;;5029441;28;20473;-73
2023/04/10 06:16:55;;;;;;;16.87;12.17;;;9.70;99.60;;;;;;5039460;28;20167;-73
2023/04/10 06:19:21;;;;;;;16.23;12.45;;;9.80;99.60;;;;;;5038339;28;20091;-73
2023/04/10 06:21:46;;;;;;;15.85;11.95;;;9.90;99.50;;;;;;5038152;28;20126;-73
2023/04/10 06:24:13;;;;;;;20.47;15.00;;;10.00;99.30;;;;;;5044582;28;20048;-73
2023/04/10 06:26:38;;;;;;;14.68;12.25;;;10.10;99.30;;;;;;5039081;28;20021;-74
2023/04/10 06:29:04;;;;;;;16.55;13.73;;;10.10;99.10;;;;;;5045128;28;20104;-73
2023/04/10 06:31:32;;;;;;;15.68;12.30;;;10.20;99.10;;;;;;5044862;28;20079;-73
2023/04/10 06:33:57;;;;;;;19.45;14.15;;;10.30;99.00;;;;;;5031535;28;20100;-72
2023/04/10 06:36:23;;;;;;;15.50;12.45;;;10.40;98.80;;;;;;5026728;28;20113;-73
2023/04/10 06:38:48;;;;;;;13.53;12.13;;;10.40;98.80;;;;;;5049456;28;20150;-73
2023/04/10 06:41:14;;;;;;;16.07;12.77;;;10.50;98.70;;;;;;5048377;28;20028;-73
2023/04/10 06:43:39;;;;;;;16.33;12.35;;;10.60;98.60;;;;;;5049899;28;20457;-73
2023/04/10 06:46:05;;;;;;;14.55;12.95;;;10.60;98.50;;;;;;5049276;28;20059;-75
2023/04/10 06:48:32;;;;;;;14.93;12.80;;;10.70;98.40;;;;;;5037955;28;20368;-73
2023/04/10 06:51:00;;;;;;;14.10;11.73;;;10.80;98.30;;;;;;5028122;28;20053;-73
2023/04/10 06:53:26;;;;;;;16.02;13.02;;;10.90;98.20;;;;;;5018749;28;20061;-73
2023/04/10 06:55:52;;;;;;;14.50;12.38;;;10.90;98.00;;;;;;5018628;28;20060;-73
2023/04/10 06:58:17;;;;;;;13.80;11.53;;;11.00;98.20;;;;;;5010621;28;20053;-73
2023/04/10 07:00:43;;;;;;;14.02;12.38;;;11.10;98.00;;;;;;5012914;28;20080;-73
2023/04/10 07:03:08;;;;;;;13.38;11.35;;;11.10;97.90;;;;;;5017332;28;20598;-72
2023/04/10 07:05:34;;;;;;;13.70;11.40;;;11.20;97.80;;;;;;5018728;28;20080;-72
2023/04/10 07:07:59;;;;;;;14.38;12.88;;;11.30;97.70;;;;;;5021874;28;20399;-73
2023/04/10 07:10:25;;;;;;;13.68;12.27;;;11.40;97.50;;;;;;5033619;28;20033;-73
2023/04/10 07:12:51;;;;;;;13.68;12.18;;;11.50;97.40;;;;;;5022638;28;20525;-73
2023/04/10 07:15:16;;;;;;;14.52;12.25;;;11.60;97.30;;;;;;5028239;28;20079;-73
2023/04/10 07:17:42;;;;;;;12.88;11.48;;;11.70;97.30;;;;;;5027886;28;20029;-73
2023/04/10 07:20:08;;;;;;;13.30;11.95;;;11.70;96.80;;;;;;5040651;28;20033;-73
2023/04/10 07:22:34;;;;;;;14.02;11.15;;;11.80;96.70;;;;;;5032690;28;20065;-73
2023/04/10 07:24:59;;;;;;;11.18;9.93;;;11.90;96.50;;;;;;5019832;28;20104;-73
2023/04/10 07:27:25;;;;;;;12.23;10.57;;;11.90;96.20;;;;;;5035428;28;20592;-74
2023/04/10 07:29:53;;;;;;;13.77;11.43;;;12.00;96.10;;;;;;5036766;28;20031;-73
2023/04/10 07:32:19;;;;;;;12.63;11.30;;;12.00;95.90;;;;;;5044305;28;20021;-71
2023/04/10 07:34:44;;;;;;;12.68;10.82;;;12.10;95.80;;;;;;5046738;28;20107;-71
2023/04/10 07:37:10;;;;;;;12.70;11.05;;;12.10;95.60;;;;;;5032944;28;20048;-71
2023/04/10 07:39:36;;;;;;;12.48;11.23;;;12.10;95.60;;;;;;5033232;28;20034;-71
2023/04/10 07:42:01;;;;;;;11.70;10.50;;;12.20;95.50;;;;;;5033521;28;20028;-71
2023/04/10 07:44:27;;;;;;;11.50;10.32;;;12.20;95.50;;;;;;5033332;28;20021;-71
2023/04/10 07:46:53;;;;;;;11.52;10.32;;;12.30;95.40;;;;;;5032055;28;20018;-71
2023/04/10 07:49:18;;;;;;;13.70;10.88;;;12.40;95.30;;;;;;5032987;28;20025;-71
2023/04/10 07:51:44;;;;;;;12.27;10.82;;;12.50;95.20;;;;;;5028526;28;20061;-71
2023/04/10 07:54:09;;;;;;;12.63;11.32;;;12.50;94.80;;;;;;5033371;28;20486;-71
2023/04/10 07:56:35;;;;;;;12.30;10.68;;;12.60;94.80;;;;;;5038046;28;20068;-71
2023/04/10 07:59:02;;;;;;;11.95;10.68;;;12.60;94.90;;;;;;5038356;28;20057;-72
2023/04/10 08:01:28;;;;;;;10.45;8.98;;;12.70;94.70;;;;;;5037053;28;20037;-71
2023/04/10 08:03:55;;;;;;;11.88;10.65;;;12.70;94.70;;;;;;5045724;28;20127;-71
2023/04/10 08:06:20;;;;;;;11.60;10.40;;;12.80;94.40;;;;;;5051977;28;20021;-71
2023/04/10 08:08:46;;;;;;;11.32;10.02;;;12.80;94.30;;;;;;5052081;28;20052;-71
2023/04/10 08:11:32;;;;;;;12.93;10.30;;;12.90;94.30;;;;;;5052049;28;20090;-72
2023/04/10 08:14:02;;;;;;;12.23;10.75;;;13.00;94.10;;;;;;5051206;28;20032;-72
2023/04/10 08:16:30;;;;;;;11.00;9.73;;;13.20;94.40;;;;;;5039241;28;20029;-71
2023/04/10 08:18:57;;;;;;;14.07;11.20;;;13.40;94.10;;;;;;5032481;28;20154;-72
2023/04/10 08:21:25;;;;;;;10.80;9.68;;;13.60;93.80;;;;;;5031385;28;20061;-72
2023/04/10 08:23:54;;;;;;;11.20;10.10;;;13.80;93.50;;;;;;5032477;28;20029;-72
2023/04/10 08:26:20;;;;;;;11.32;9.95;;;13.90;93.20;;;;;;5043725;28;20033;-72
2023/04/10 08:28:50;;;;;;;10.95;9.15;;;14.10;92.70;;;;;;5032220;28;20033;-72
2023/04/10 08:31:17;;;;;;;11.00;9.88;;;14.20;92.20;;;;;;5033462;28;20040;-73
2023/04/10 08:33:43;;;;;;;10.98;9.65;;;14.30;91.70;;;;;;5031840;28;20018;-73
2023/04/10 08:36:09;;;;;;;10.55;9.40;;;14.30;91.60;;;;;;5032502;28;20024;-72
2023/04/10 08:38:34;;;;;;;9.82;8.82;;;14.40;91.90;;;;;;5038542;28;20461;-72
2023/04/10 08:41:00;;;;;;;10.00;9.00;;;14.50;91.60;;;;;;5043265;28;20033;-72
2023/04/10 08:43:26;;;;;;;9.93;8.80;;;14.60;91.50;;;;;;5046664;28;20017;-72
2023/04/10 08:45:52;;;;;;;9.20;8.27;;;14.70;91.20;;;;;;5051140;28;20033;-72
2023/04/10 08:48:19;;;;;;;9.68;8.77;;;14.80;91.00;;;;;;5040043;28;20385;-72
2023/04/10 08:50:45;;;;;;;9.82;8.82;;;14.80;90.70;;;;;;5050837;28;20108;-72
2023/04/10 08:53:13;;;;;;;9.95;9.00;;;14.90;90.50;;;;;;5051662;28;20075;-71
2023/04/10 08:55:39;;;;;;;9.93;8.93;;;15.00;90.30;;;;;;5044325;28;20113;-72
2023/04/10 08:58:05;;;;;;;10.57;9.43;;;15.10;90.10;;;;;;5031065;28;20025;-72
2023/04/10 09:00:33;;;;;;;10.07;9.07;;;15.10;89.90;;;;;;5036636;28;20037;-71
2023/04/10 09:02:59;;;;;;;10.45;9.45;;;15.30;89.80;;;;;;5040608;28;20041;-71
2023/04/10 09:05:27;;;;;;;10.18;9.23;;;15.30;88.80;;;;;;5042066;28;20021;-71
2023/04/10 09:07:52;;;;;;;9.73;8.73;;;15.50;88.50;;;;;;5051678;28;20016;-71
2023/04/10 09:10:18;;;;;;;10.20;9.15;;;15.60;88.00;;;;;;5040581;28;20036;-72
2023/04/10 09:12:47;;;;;;;8.80;7.60;;;15.60;87.20;;;;;;5052041;28;20143;-71
2023/04/10 09:15:14;;;;;;;9.10;7.85;;;15.70;86.90;;;;;;5050728;28;20053;-71
2023/04/10 09:18:00;;;;;;;9.70;8.23;;;15.70;86.70;;;;;;5051209;28;20017;-71
2023/04/10 09:20:27;;;;;;;7.88;7.07;;;15.70;85.50;;;;;;5035474;28;20025;-71
2023/04/10 09:22:53;;;;;;;8.95;8.13;;;15.70;85.60;;;;;;5051515;28;20025;-71
2023/04/10 09:25:37;;;;;;;8.80;8.00;;;15.70;85.40;;;;;;5049030;28;20013;-71
2023/04/10 09:28:08;;;;;;;8.57;7.78;;;15.80;85.10;;;;;;5049860;28;20029;-71
2023/04/10 09:30:36;;;;;;;8.82;8.02;;;15.90;84.80;;;;;;5038864;28;20013;-71
2023/04/10 09:33:02;;;;;;;8.25;7.30;;;15.90;84.00;;;;;;5036096;28;20108;-70
2023/04/10 09:35:38;;;;;;;9.48;8.48;;;16.00;84.10;;;;;;5050245;28;20516;-71
2023/04/10 09:38:14;;;;;;;9.10;8.10;;;16.10;83.20;;;;;;5037718;28;20041;-71
2023/04/10 09:40:40;;;;;;;7.90;7.10;;;16.10;83.40;;;;;;5050902;28;20092;-71
2023/04/10 09:43:25;;;;;;;9.02;8.10;;;16.10;83.70;;;;;;5050490;28;20108;-71
2023/04/10 09:45:53;;;;;;;8.75;7.95;;;16.10;83.90;;;;;;5050409;28;20017;-71
2023/04/10 09:48:20;;;;;;;10.25;8.73;;;16.10;83.50;;;;;;5033297;28;20029;-71
2023/04/10 09:50:46;;;;;;;9.02;8.10;;;16.10;82.60;;;;;;5034718;28;20104;-71
2023/04/10 09:53:15;;;;;;;9.07;7.80;;;16.00;82.80;;;;;;5043829;28;20104;-71
2023/04/10 09:55:41;;;;;;;8.18;7.43;;;16.00;82.80;;;;;;5046103;28;20025;-71
2023/04/10 09:58:08;;;;;;;9.32;8.45;;;15.90;82.80;;;;;;5038796;28;20036;-71
2023/04/10 10:00:44;;;;;;;8.73;7.75;;;16.00;82.90;;;;;;5034581;28;20025;-71
2023/04/10 10:03:18;;;;;;;9.18;7.55;;;16.00;82.90;;;;;;5030569;28;20053;-71
2023/04/10 10:05:46;;;;;;;10.27;7.13;;;16.00;83.00;;;;;;5031072;28;20097;-71
2023/04/10 10:08:13;;;;;;;9.20;7.35;;;16.00;83.10;;;;;;5027716;28;20528;-72
2023/04/10 10:10:44;;;;;;;11.60;8.02;;;16.00;83.00;;;;;;5044660;28;20017;-72
2023/04/10 10:13:16;;;;;;;8.73;7.32;;;16.00;83.50;;;;;;5047205;28;20532;-72
2023/04/10 10:16:06;;;;;;;11.73;8.05;;;16.10;83.10;;;;;;5046510;28;20079;-71
2023/04/10 10:18:41;;;;;;;8.40;7.60;;;16.10;82.80;;;;;;5047230;28;20032;-73
2023/04/10 10:21:08;;;;;;;7.82;6.97;;;16.20;82.60;;;;;;5049208;28;20068;-74
2023/04/10 10:23:36;;;;;;;7.95;6.80;;;16.20;82.60;;;;;;5047162;28;20021;-73
2023/04/10 10:26:05;;;;;;;8.00;7.20;;;16.40;83.00;;;;;;5037606;28;20021;-72
2023/04/10 10:28:32;;;;;;;8.40;7.03;;;16.50;82.70;;;;;;5040636;28;20052;-73
2023/04/10 10:30:59;;;;;;;7.38;6.68;;;16.50;82.60;;;;;;5032703;28;20125;-72
2023/04/10 10:33:26;;;;;;;7.45;6.57;;;16.60;82.40;;;;;;5046955;28;20048;-72
2023/04/10 10:35:53;;;;;;;7.60;6.82;;;16.70;82.10;;;;;;5048585;28;20107;-72
2023/04/10 10:38:19;;;;;;;8.98;6.53;;;16.70;81.40;;;;;;5048886;28;20025;-72
2023/04/10 10:41:01;;;;;;;7.60;6.93;;;16.80;81.60;;;;;;5035223;28;20102;-72
2023/04/10 10:43:36;;;;;;;7.30;6.43;;;16.80;81.20;;;;;;5029812;28;20013;-72
2023/04/10 10:46:10;;;;;;;6.78;6.07;;;16.90;81.00;;;;;;5037423;28;20048;-72
2023/04/10 10:48:35;;;;;;;6.63;5.93;;;17.00;80.90;;;;;;5047710;28;20017;-72
2023/04/10 10:51:02;;;;;;;7.50;6.80;;;17.00;80.20;;;;;;5030338;28;20493;-72
2023/04/10 10:53:41;;;;;;;7.75;6.95;;;17.00;80.40;;;;;;5038127;28;20378;-73
2023/04/10 10:56:22;;;;;;;6.93;6.22;;;17.10;80.50;;;;;;5030537;28;20028;-72
2023/04/10 10:58:52;;;;;;;7.15;6.30;;;17.20;80.10;;;;;;5032655;28;20041;-72
2023/04/10 11:01:20;;;;;;;6.93;5.55;;;17.30;79.90;;;;;;5034370;28;20067;-72
2023/04/10 11:03:45;;;;;;;8.30;5.53;;;17.40;79.70;;;;;;5029937;28;20102;-72
2023/04/10 11:06:20;;;;;;;5.47;5.03;;;17.50;79.60;;;;;;5036334;28;20022;-72
2023/04/10 11:08:48;;;;;;;6.53;5.93;;;17.60;79.50;;;;;;5033959;28;20112;-72
2023/04/10 11:11:23;;;;;;;6.70;6.10;;;17.70;79.00;;;;;;5030435;28;20037;-72
2023/04/10 11:13:52;;;;;;;6.32;5.72;;;17.80;79.10;;;;;;5032090;28;20769;-72
2023/04/10 11:16:19;;;;;;;7.03;6.30;;;17.90;78.70;;;;;;5037334;28;20056;-72
2023/04/10 11:18:45;;;;;;;6.60;6.00;;;18.00;78.00;;;;;;5029094;28;20044;-72
2023/04/10 11:21:17;;;;;;;6.63;5.95;;;18.00;77.70;;;;;;5025686;28;20463;-72
2023/04/10 11:23:49;;;;;;;6.93;6.25;;;18.10;77.60;;;;;;5029912;28;20108;-71
2023/04/10 11:26:40;;;;;;;7.40;6.70;;;18.20;77.80;;;;;;5031681;28;20110;-72
2023/04/10 11:29:26;;;;;;;7.10;5.50;;;18.40;77.60;;;;;;5035969;28;20017;-72
2023/04/10 11:32:00;;;;;;;6.47;5.15;;;18.40;76.40;;;;;;5044679;28;20119;-72
2023/04/10 11:34:26;;;;;;;6.63;6.03;;;18.40;76.50;;;;;;5031612;28;20225;-72
2023/04/10 11:36:52;;;;;;;6.82;6.15;;;18.40;76.10;;;;;;5033327;28;20025;-72
2023/04/10 11:39:19;;;;;;;7.78;6.40;;;18.40;76.10;;;;;;5030532;28;20101;-72
2023/04/10 11:41:56;;;;;;;6.63;6.00;;;18.40;76.00;;;;;;5032411;28;20501;-72
2023/04/10 11:44:25;;;;;;;9.35;6.47;;;18.30;76.00;;;;;;5031081;28;20029;-72
2023/04/10 11:46:51;;;;;;;6.28;5.75;;;18.40;75.60;;;;;;5018829;28;20013;-72
2023/04/10 11:49:25;;;;;;;6.65;5.90;;;18.30;75.60;;;;;;5024048;28;20026;-72
2023/04/10 11:51:51;;;;;;;6.18;5.60;;;18.40;75.40;;;;;;5033453;28;20033;-72
2023/04/10 11:54:19;;;;;;;7.55;6.10;;;18.50;75.50;;;;;;5020483;28;20521;-73
2023/04/10 11:56:53;;;;;;;6.97;5.85;;;18.60;75.30;;;;;;5024183;28;20022;-72
2023/04/10 11:59:19;;;;;;;5.90;5.40;;;18.70;76.00;;;;;;5037867;28;20075;-72
2023/04/10 12:01:46;;;;;;;6.03;5.50;;;18.80;75.40;;;;;;5027045;28;21359;-72
2023/04/10 12:04:15;;;;;;;7.03;6.32;;;18.80;74.90;;;;;;5031880;28;20112;-72
2023/04/10 12:06:48;;;;;;;6.32;5.72;;;18.90;74.60;;;;;;5033472;28;20100;-72
2023/04/10 12:09:16;;;;;;;5.55;5.05;;;18.90;74.40;;;;;;5031874;28;20087;-72
2023/04/10 12:11:51;;;;;;;6.75;5.88;;;19.00;74.20;;;;;;5025041;28;20650;-72
2023/04/10 12:14:18;;;;;;;5.25;4.75;;;19.00;74.20;;;;;;5031371;28;20100;-72
2023/04/10 12:16:45;;;;;;;5.30;4.80;;;19.10;73.80;;;;;;5027696;28;20079;-71
2023/04/10 12:19:11;;;;;;;5.50;4.93;;;19.20;73.80;;;;;;5033825;28;20034;-71
2023/04/10 12:21:39;;;;;;;5.68;4.95;;;19.30;73.90;;;;;;5029799;28;20029;-71
2023/04/10 12:24:05;;;;;;;5.32;4.82;;;19.30;72.90;;;;;;5029213;28;20105;-71
2023/04/10 12:26:31;;;;;;;4.75;4.35;;;19.40;72.40;;;;;;5024051;28;20161;-72
2023/04/10 12:28:57;;;;;;;5.47;3.72;;;19.40;71.80;;;;;;5037547;28;20026;-72
2023/04/10 12:31:31;;;;;;;6.35;4.53;;;19.40;71.40;;;;;;5037272;28;20393;-71
2023/04/10 12:33:57;;;;;;;4.32;3.78;;;19.40;70.80;;;;;;5033705;28;20029;-72
2023/04/10 12:36:28;;;;;;;4.15;3.75;;;19.30;70.70;;;;;;5021995;28;20062;-72
2023/04/10 12:38:53;;;;;;;4.85;3.58;;;19.30;70.90;;;;;;5035285;28;20017;-72
2023/04/10 12:41:24;;;;;;;3.85;3.42;;;19.30;70.80;;;;;;5028888;28;20092;-72